Humboldt, South Dakota
Current Conditions -  °F | °C
As of 10:56 AM on Friday 19 Dec 2014 (Local Time) from KFSD Reporting Station
Overcast Overcast  
Wind Chill: 20°   Ceiling: 700
Heat Index: 30°   Visibility: 7mi
Dew Point: 27°   Wind: 14mph
Humidity: 88%   Direction: 180°S
Pressure: 30.14"   Gusts: NA
Location:  43.65°N, 97.07°W
Report Text: KFSD 191656Z 18012KT 7SM OVC007 M01/M03 A3014 RMK AO2 SLP225 T10111028
Loading
Personal Weather Stations






























Interactive Weather Map New forecast layout! Learn more

10-Day Weather Forecast

Advertisements
Track Severe Weather on mobile